sensor_id;sensor_type;location;lat;lon;timestamp;temperature;humidity
11894;DHT22;6006;49.696;8.662;2023-04-01T00:01:13;10.00;1.00
11894;DHT22;6006;49.696;8.662;2023-04-01T00:03:40;10.00;99.90
11894;DHT22;6006;49.696;8.662;2023-04-01T00:06:07;10.00;45.30
11894;DHT22;6006;49.696;8.662;2023-04-01T00:08:34;10.10;99.90
11894;DHT22;6006;49.696;8.662;2023-04-01T00:11:01;10.10;99.90
11894;DHT22;6006;49.696;8.662;2023-04-01T00:13:27;10.10;1.00
11894;DHT22;6006;49.696;8.662;2023-04-01T00:15:55;10.10;99.90
11894;DHT22;6006;49.696;8.662;2023-04-01T00:18:24;10.10;1.00
11894;DHT22;6006;49.696;8.662;2023-04-01T00:20:51;10.00;1.00
11894;DHT22;6006;49.696;8.662;2023-04-01T00:23:19;10.00;1.00
11894;DHT22;6006;49.696;8.662;2023-04-01T00:25:47;10.00;1.00
11894;DHT22;6006;49.696;8.662;2023-04-01T00:28:15;10.00;1.00
11894;DHT22;6006;49.696;8.662;2023-04-01T00:30:42;10.00;99.90
11894;DHT22;6006;49.696;8.662;2023-04-01T00:33:09;10.00;99.90
11894;DHT22;6006;49.696;8.662;2023-04-01T00:35:37;10.00;99.90
11894;DHT22;6006;49.696;8.662;2023-04-01T00:38:04;10.00;99.90
11894;DHT22;6006;49.696;8.662;2023-04-01T00:40:34;10.00;1.00
11894;DHT22;6006;49.696;8.662;2023-04-01T00:43:02;10.10;99.90
11894;DHT22;6006;49.696;8.662;2023-04-01T00:45:33;10.20;99.90
11894;DHT22;6006;49.696;8.662;2023-04-01T00:48:04;10.20;1.00
11894;DHT22;6006;49.696;8.662;2023-04-01T00:50:32;10.20;1.00
11894;DHT22;6006;49.696;8.662;2023-04-01T00:53:02;10.10;1.00
11894;DHT22;6006;49.696;8.662;2023-04-01T00:55:31;10.20;1.00
11894;DHT22;6006;49.696;8.662;2023-04-01T00:58:00;10.10;99.90
11894;DHT22;6006;49.696;8.662;2023-04-01T01:00:28;10.10;1.00
11894;DHT22;6006;49.696;8.662;2023-04-01T01:02:55;10.10;1.00
11894;DHT22;6006;49.696;8.662;2023-04-01T01:05:28;10.20;99.90
11894;DHT22;6006;49.696;8.662;2023-04-01T01:08:03;10.20;37.90
11894;DHT22;6006;49.696;8.662;2023-04-01T01:10:38;10.20;1.00
11894;DHT22;6006;49.696;8.662;2023-04-01T01:13:11;10.20;99.90
11894;DHT22;6006;49.696;8.662;2023-04-01T01:15:45;10.30;1.00
11894;DHT22;6006;49.696;8.662;2023-04-01T01:18:19;10.30;1.00
11894;DHT22;6006;49.696;8.662;2023-04-01T01:21:24;10.30;99.90
11894;DHT22;6006;49.696;8.662;2023-04-01T01:24:12;10.20;1.00
11894;DHT22;6006;49.696;8.662;2023-04-01T01:27:01;10.20;99.90
11894;DHT22;6006;49.696;8.662;2023-04-01T01:29:54;10.20;1.00
11894;DHT22;6006;49.696;8.662;2023-04-01T01:32:38;10.20;1.00
11894;DHT22;6006;49.696;8.662;2023-04-01T01:35:19;10.10;1.00
11894;DHT22;6006;49.696;8.662;2023-04-01T01:37:50;10.10;99.90
11894;DHT22;6006;49.696;8.662;2023-04-01T01:40:18;10.10;99.90
11894;DHT22;6006;49.696;8.662;2023-04-01T01:42:48;10.10;99.90
11894;DHT22;6006;49.696;8.662;2023-04-01T01:45:19;10.10;99.90
11894;DHT22;6006;49.696;8.662;2023-04-01T01:47:47;10.00;1.00
11894;DHT22;6006;49.696;8.662;2023-04-01T01:50:17;10.10;99.90
11894;DHT22;6006;49.696;8.662;2023-04-01T01:52:46;10.10;1.00
11894;DHT22;6006;49.696;8.662;2023-04-01T01:55:26;10.10;1.00
11894;DHT22;6006;49.696;8.662;2023-04-01T01:57:56;10.10;99.90
11894;DHT22;6006;49.696;8.662;2023-04-01T02:00:25;10.00;1.00
11894;DHT22;6006;49.696;8.662;2023-04-01T02:02:53;10.00;1.00
11894;DHT22;6006;49.696;8.662;2023-04-01T02:05:24;10.00;1.00
11894;DHT22;6006;49.696;8.662;2023-04-01T02:07:57;10.00;1.00
11894;DHT22;6006;49.696;8.662;2023-04-01T02:10:27;9.90;99.90
11894;DHT22;6006;49.696;8.662;2023-04-01T02:12:58;10.00;99.90
11894;DHT22;6006;49.696;8.662;2023-04-01T02:15:28;10.00;59.30
11894;DHT22;6006;49.696;8.662;2023-04-01T02:17:58;10.00;1.00
11894;DHT22;6006;49.696;8.662;2023-04-01T02:20:28;10.00;99.90
11894;DHT22;6006;49.696;8.662;2023-04-01T02:22:56;10.00;64.70
11894;DHT22;6006;49.696;8.662;2023-04-01T02:25:27;9.90;1.00
11894;DHT22;6006;49.696;8.662;2023-04-01T02:27:56;9.90;69.40
11894;DHT22;6006;49.696;8.662;2023-04-01T02:30:25;9.90;99.90
11894;DHT22;6006;49.696;8.662;2023-04-01T02:32:53;9.90;78.40
11894;DHT22;6006;49.696;8.662;2023-04-01T02:35:21;9.90;1.00
11894;DHT22;6006;49.696;8.662;2023-04-01T02:37:50;9.90;1.00
11894;DHT22;6006;49.696;8.662;2023-04-01T02:40:18;10.00;1.00
11894;DHT22;6006;49.696;8.662;2023-04-01T02:42:45;10.00;99.90
11894;DHT22;6006;49.696;8.662;2023-04-01T02:45:13;10.00;99.90
11894;DHT22;6006;49.696;8.662;2023-04-01T02:47:40;10.20;1.00
11894;DHT22;6006;49.696;8.662;2023-04-01T02:50:08;10.20;99.90
11894;DHT22;6006;49.696;8.662;2023-04-01T02:52:35;10.20;99.90
11894;DHT22;6006;49.696;8.662;2023-04-01T02:55:05;10.20;1.00
11894;DHT22;6006;49.696;8.662;2023-04-01T02:57:32;10.20;1.00
11894;DHT22;6006;49.696;8.662;2023-04-01T02:59:59;10.10;1.00
11894;DHT22;6006;49.696;8.662;2023-04-01T03:02:26;10.20;1.00
11894;DHT22;6006;49.696;8.662;2023-04-01T03:04:52;10.20;1.00
11894;DHT22;6006;49.696;8.662;2023-04-01T03:07:19;10.20;1.00
11894;DHT22;6006;49.696;8.662;2023-04-01T03:09:46;10.10;1.00
11894;DHT22;6006;49.696;8.662;2023-04-01T03:12:14;10.10;1.00
11894;DHT22;6006;49.696;8.662;2023-04-01T03:14:41;10.10;99.90
11894;DHT22;6006;49.696;8.662;2023-04-01T03:17:08;10.10;99.90
11894;DHT22;6006;49.696;8.662;2023-04-01T03:19:35;10.10;1.00
11894;DHT22;6006;49.696;8.662;2023-04-01T03:22:01;10.10;1.00
11894;DHT22;6006;49.696;8.662;2023-04-01T03:24:28;10.10;1.00
11894;DHT22;6006;49.696;8.662;2023-04-01T03:26:55;10.10;1.00
11894;DHT22;6006;49.696;8.662;2023-04-01T03:29:23;10.20;1.00
11894;DHT22;6006;49.696;8.662;2023-04-01T03:31:50;10.10;44.30
11894;DHT22;6006;49.696;8.662;2023-04-01T03:34:17;10.10;1.00
11894;DHT22;6006;49.696;8.662;2023-04-01T03:36:44;10.00;99.90
11894;DHT22;6006;49.696;8.662;2023-04-01T03:39:10;10.00;1.00
11894;DHT22;6006;49.696;8.662;2023-04-01T03:41:37;10.10;12.20
11894;DHT22;6006;49.696;8.662;2023-04-01T03:44:04;10.10;99.90
11894;DHT22;6006;49.696;8.662;2023-04-01T03:46:33;10.10;69.30
11894;DHT22;6006;49.696;8.662;2023-04-01T03:49:00;10.10;92.70
11894;DHT22;6006;49.696;8.662;2023-04-01T03:51:26;10.00;99.90
11894;DHT22;6006;49.696;8.662;2023-04-01T03:53:53;10.10;99.90
11894;DHT22;6006;49.696;8.662;2023-04-01T03:56:20;10.10;99.90
11894;DHT22;6006;49.696;8.662;2023-04-01T03:58:47;10.00;1.00
11894;DHT22;6006;49.696;8.662;2023-04-01T04:01:16;10.00;99.90
11894;DHT22;6006;49.696;8.662;2023-04-01T04:03:44;10.00;1.00
11894;DHT22;6006;49.696;8.662;2023-04-01T04:06:12;10.00;1.00
11894;DHT22;6006;49.696;8.662;2023-04-01T04:08:39;10.00;99.90
11894;DHT22;6006;49.696;8.662;2023-04-01T04:11:06;9.90;99.90
11894;DHT22;6006;49.696;8.662;2023-04-01T04:13:33;9.90;1.00
11894;DHT22;6006;49.696;8.662;2023-04-01T04:16:01;9.90;1.00
11894;DHT22;6006;49.696;8.662;2023-04-01T04:18:28;9.90;59.20
11894;DHT22;6006;49.696;8.662;2023-04-01T04:20:57;9.90;1.00
11894;DHT22;6006;49.696;8.662;2023-04-01T04:23:24;9.90;99.90
11894;DHT22;6006;49.696;8.662;2023-04-01T04:25:55;9.90;53.40
11894;DHT22;6006;49.696;8.662;2023-04-01T04:28:22;9.90;99.90
11894;DHT22;6006;49.696;8.662;2023-04-01T04:30:49;9.90;1.00
11894;DHT22;6006;49.696;8.662;2023-04-01T04:33:16;9.80;73.90
11894;DHT22;6006;49.696;8.662;2023-04-01T04:35:43;9.90;99.90
11894;DHT22;6006;49.696;8.662;2023-04-01T04:38:11;9.80;1.00
11894;DHT22;6006;49.696;8.662;2023-04-01T04:40:38;9.80;99.90
11894;DHT22;6006;49.696;8.662;2023-04-01T04:43:05;9.80;1.00
11894;DHT22;6006;49.696;8.662;2023-04-01T04:45:32;9.80;99.90
11894;DHT22;6006;49.696;8.662;2023-04-01T04:47:59;9.80;1.00
11894;DHT22;6006;49.696;8.662;2023-04-01T04:50:26;9.80;99.90
11894;DHT22;6006;49.696;8.662;2023-04-01T04:52:53;9.90;99.90
11894;DHT22;6006;49.696;8.662;2023-04-01T04:55:21;9.90;1.00
11894;DHT22;6006;49.696;8.662;2023-04-01T04:57:48;9.80;1.00
11894;DHT22;6006;49.696;8.662;2023-04-01T05:00:15;9.90;99.90
11894;DHT22;6006;49.696;8.662;2023-04-01T05:02:42;9.90;99.90
11894;DHT22;6006;49.696;8.662;2023-04-01T05:05:09;9.90;99.90
11894;DHT22;6006;49.696;8.662;2023-04-01T05:07:37;9.80;99.90
11894;DHT22;6006;49.696;8.662;2023-04-01T05:10:04;9.90;1.00
11894;DHT22;6006;49.696;8.662;2023-04-01T05:12:33;9.90;99.90
11894;DHT22;6006;49.696;8.662;2023-04-01T05:15:03;9.90;99.90
11894;DHT22;6006;49.696;8.662;2023-04-01T05:17:30;9.90;1.00
11894;DHT22;6006;49.696;8.662;2023-04-01T05:19:57;9.80;99.90
11894;DHT22;6006;49.696;8.662;2023-04-01T05:22:24;9.90;1.00
11894;DHT22;6006;49.696;8.662;2023-04-01T05:24:51;9.90;1.00
11894;DHT22;6006;49.696;8.662;2023-04-01T05:27:18;9.90;1.00
11894;DHT22;6006;49.696;8.662;2023-04-01T05:29:46;10.00;99.90
11894;DHT22;6006;49.696;8.662;2023-04-01T05:32:13;10.00;1.00
11894;DHT22;6006;49.696;8.662;2023-04-01T05:34:40;10.00;1.00
11894;DHT22;6006;49.696;8.662;2023-04-01T05:37:07;10.00;1.00
11894;DHT22;6006;49.696;8.662;2023-04-01T05:39:36;9.90;1.00
11894;DHT22;6006;49.696;8.662;2023-04-01T05:42:05;9.90;99.90
11894;DHT22;6006;49.696;8.662;2023-04-01T05:44:33;9.90;1.00
11894;DHT22;6006;49.696;8.662;2023-04-01T05:47:01;9.90;99.90
11894;DHT22;6006;49.696;8.662;2023-04-01T05:49:28;9.90;1.00
11894;DHT22;6006;49.696;8.662;2023-04-01T05:51:55;9.90;1.00
11894;DHT22;6006;49.696;8.662;2023-04-01T05:54:23;9.80;99.90
11894;DHT22;6006;49.696;8.662;2023-04-01T05:56:49;9.80;99.90
11894;DHT22;6006;49.696;8.662;2023-04-01T05:59:16;9.80;1.00
11894;DHT22;6006;49.696;8.662;2023-04-01T06:01:43;9.80;99.90
11894;DHT22;6006;49.696;8.662;2023-04-01T06:04:14;9.80;99.90
11894;DHT22;6006;49.696;8.662;2023-04-01T06:06:41;9.70;1.00
11894;DHT22;6006;49.696;8.662;2023-04-01T06:09:13;9.80;1.00
11894;DHT22;6006;49.696;8.662;2023-04-01T06:11:54;9.80;1.00
11894;DHT22;6006;49.696;8.662;2023-04-01T06:14:28;9.80;99.90
11894;DHT22;6006;49.696;8.662;2023-04-01T06:17:09;9.80;99.90
11894;DHT22;6006;49.696;8.662;2023-04-01T06:19:47;9.80;99.90
11894;DHT22;6006;49.696;8.662;2023-04-01T06:22:27;9.70;33.20
11894;DHT22;6006;49.696;8.662;2023-04-01T06:25:17;9.70;1.00
11894;DHT22;6006;49.696;8.662;2023-04-01T06:27:54;9.60;99.90
11894;DHT22;6006;49.696;8.662;2023-04-01T06:30:34;9.70;99.90
11894;DHT22;6006;49.696;8.662;2023-04-01T06:33:31;9.70;99.90
11894;DHT22;6006;49.696;8.662;2023-04-01T06:36:45;9.60;99.90
11894;DHT22;6006;49.696;8.662;2023-04-01T06:39:27;9.60;1.00
11894;DHT22;6006;49.696;8.662;2023-04-01T06:42:33;9.60;99.90
11894;DHT22;6006;49.696;8.662;2023-04-01T06:45:10;9.60;99.90
11894;DHT22;6006;49.696;8.662;2023-04-01T06:47:51;9.60;99.90
11894;DHT22;6006;49.696;8.662;2023-04-01T06:50:28;9.70;99.90
11894;DHT22;6006;49.696;8.662;2023-04-01T06:53:02;9.70;1.00
11894;DHT22;6006;49.696;8.662;2023-04-01T06:55:35;9.60;1.00
11894;DHT22;6006;49.696;8.662;2023-04-01T06:58:06;9.60;1.00
11894;DHT22;6006;49.696;8.662;2023-04-01T07:00:39;9.70;1.00
11894;DHT22;6006;49.696;8.662;2023-04-01T07:03:12;9.70;1.00
11894;DHT22;6006;49.696;8.662;2023-04-01T07:05:42;9.70;1.00
11894;DHT22;6006;49.696;8.662;2023-04-01T07:08:15;9.70;99.90
11894;DHT22;6006;49.696;8.662;2023-04-01T07:10:46;9.70;12.50
11894;DHT22;6006;49.696;8.662;2023-04-01T07:13:20;9.70;99.90
11894;DHT22;6006;49.696;8.662;2023-04-01T07:15:55;9.80;99.90
11894;DHT22;6006;49.696;8.662;2023-04-01T07:18:29;9.80;99.90
11894;DHT22;6006;49.696;8.662;2023-04-01T07:20:57;9.80;99.90
11894;DHT22;6006;49.696;8.662;2023-04-01T07:23:29;9.90;99.90
11894;DHT22;6006;49.696;8.662;2023-04-01T07:26:00;9.90;1.00
11894;DHT22;6006;49.696;8.662;2023-04-01T07:28:31;9.90;1.00
11894;DHT22;6006;49.696;8.662;2023-04-01T07:31:07;9.80;99.90
11894;DHT22;6006;49.696;8.662;2023-04-01T07:33:44;9.80;1.00
11894;DHT22;6006;49.696;8.662;2023-04-01T07:36:17;9.80;1.00
11894;DHT22;6006;49.696;8.662;2023-04-01T07:38:54;9.80;99.90
11894;DHT22;6006;49.696;8.662;2023-04-01T07:41:30;9.80;12.20
11894;DHT22;6006;49.696;8.662;2023-04-01T07:44:07;9.90;1.00
11894;DHT22;6006;49.696;8.662;2023-04-01T07:46:55;9.90;1.00
11894;DHT22;6006;49.696;8.662;2023-04-01T07:49:29;10.00;99.90
11894;DHT22;6006;49.696;8.662;2023-04-01T07:52:01;10.00;99.90
11894;DHT22;6006;49.696;8.662;2023-04-01T07:54:39;9.90;1.00
11894;DHT22;6006;49.696;8.662;2023-04-01T07:57:11;10.00;99.90
11894;DHT22;6006;49.696;8.662;2023-04-01T07:59:45;10.00;99.90
11894;DHT22;6006;49.696;8.662;2023-04-01T08:02:28;10.10;99.90
11894;DHT22;6006;49.696;8.662;2023-04-01T08:05:04;10.00;1.00
11894;DHT22;6006;49.696;8.662;2023-04-01T08:07:45;10.00;1.00
11894;DHT22;6006;49.696;8.662;2023-04-01T08:10:20;9.90;99.90
11894;DHT22;6006;49.696;8.662;2023-04-01T08:12:58;9.90;99.90
11894;DHT22;6006;49.696;8.662;2023-04-01T08:15:35;10.00;99.90
11894;DHT22;6006;49.696;8.662;2023-04-01T08:18:13;10.00;99.90
11894;DHT22;6006;49.696;8.662;2023-04-01T08:20:45;10.00;1.00
11894;DHT22;6006;49.696;8.662;2023-04-01T08:23:16;9.90;99.90
11894;DHT22;6006;49.696;8.662;2023-04-01T08:25:50;9.90;1.00
11894;DHT22;6006;49.696;8.662;2023-04-01T08:28:21;9.80;1.00
11894;DHT22;6006;49.696;8.662;2023-04-01T08:30:53;9.90;1.00
11894;DHT22;6006;49.696;8.662;2023-04-01T08:33:24;9.80;1.00
11894;DHT22;6006;49.696;8.662;2023-04-01T08:35:56;9.80;1.00
11894;DHT22;6006;49.696;8.662;2023-04-01T08:38:28;9.80;1.00
11894;DHT22;6006;49.696;8.662;2023-04-01T08:41:00;9.70;42.10
11894;DHT22;6006;49.696;8.662;2023-04-01T08:44:04;9.70;84.90
11894;DHT22;6006;49.696;8.662;2023-04-01T08:46:58;9.60;99.90
11894;DHT22;6006;49.696;8.662;2023-04-01T08:49:57;9.60;99.90
11894;DHT22;6006;49.696;8.662;2023-04-01T08:52:35;9.60;99.90
11894;DHT22;6006;49.696;8.662;2023-04-01T08:58:17;9.60;99.90
11894;DHT22;6006;49.696;8.662;2023-04-01T09:00:53;9.60;99.90
11894;DHT22;6006;49.696;8.662;2023-04-01T09:03:41;9.70;99.90
11894;DHT22;6006;49.696;8.662;2023-04-01T09:06:38;9.70;99.90
11894;DHT22;6006;49.696;8.662;2023-04-01T09:09:25;9.70;99.90
11894;DHT22;6006;49.696;8.662;2023-04-01T09:15:16;9.70;99.90
11894;DHT22;6006;49.696;8.662;2023-04-01T09:21:06;9.70;99.90
11894;DHT22;6006;49.696;8.662;2023-04-01T09:30:17;9.60;99.90
11894;DHT22;6006;49.696;8.662;2023-04-01T09:33:17;9.70;99.90
11894;DHT22;6006;49.696;8.662;2023-04-01T09:35:58;9.60;99.90
11894;DHT22;6006;49.696;8.662;2023-04-01T09:38:30;9.60;99.90
11894;DHT22;6006;49.696;8.662;2023-04-01T09:41:13;9.60;99.90
11894;DHT22;6006;49.696;8.662;2023-04-01T09:46:46;9.60;99.90
11894;DHT22;6006;49.696;8.662;2023-04-01T09:49:40;9.70;99.90
11894;DHT22;6006;49.696;8.662;2023-04-01T09:52:24;9.60;99.90
11894;DHT22;6006;49.696;8.662;2023-04-01T09:55:12;9.50;99.90
11894;DHT22;6006;49.696;8.662;2023-04-01T09:58:09;9.40;99.90
11894;DHT22;6006;49.696;8.662;2023-04-01T10:00:53;9.40;99.90
11894;DHT22;6006;49.696;8.662;2023-04-01T10:06:54;9.40;99.90
11894;DHT22;6006;49.696;8.662;2023-04-01T10:10:05;9.40;99.90
11894;DHT22;6006;49.696;8.662;2023-04-01T10:13:17;9.40;99.90
11894;DHT22;6006;49.696;8.662;2023-04-01T10:16:32;9.40;99.90
11894;DHT22;6006;49.696;8.662;2023-04-01T10:19:18;9.50;99.90
11894;DHT22;6006;49.696;8.662;2023-04-01T10:22:22;9.50;99.90
11894;DHT22;6006;49.696;8.662;2023-04-01T10:25:05;9.50;99.90
11894;DHT22;6006;49.696;8.662;2023-04-01T10:27:49;9.60;99.90
11894;DHT22;6006;49.696;8.662;2023-04-01T10:34:05;9.60;99.90
11894;DHT22;6006;49.696;8.662;2023-04-01T10:36:48;9.70;99.90
11894;DHT22;6006;49.696;8.662;2023-04-01T10:43:15;9.80;99.90
11894;DHT22;6006;49.696;8.662;2023-04-01T10:46:11;9.80;99.90
11894;DHT22;6006;49.696;8.662;2023-04-01T10:49:10;9.80;99.90
11894;DHT22;6006;49.696;8.662;2023-04-01T10:52:23;9.80;99.90
11894;DHT22;6006;49.696;8.662;2023-04-01T11:01:16;9.90;99.90
11894;DHT22;6006;49.696;8.662;2023-04-01T11:10:49;10.10;99.90
11894;DHT22;6006;49.696;8.662;2023-04-01T11:16:44;10.20;99.90
11894;DHT22;6006;49.696;8.662;2023-04-01T11:22:48;10.30;99.90
11894;DHT22;6006;49.696;8.662;2023-04-01T11:25:25;10.30;99.90
11894;DHT22;6006;49.696;8.662;2023-04-01T11:31:11;10.40;99.90
11894;DHT22;6006;49.696;8.662;2023-04-01T11:33:45;10.40;99.90
11894;DHT22;6006;49.696;8.662;2023-04-01T11:36:28;10.40;99.90
11894;DHT22;6006;49.696;8.662;2023-04-01T11:39:11;10.40;99.90
11894;DHT22;6006;49.696;8.662;2023-04-01T11:41:46;10.40;99.90
11894;DHT22;6006;49.696;8.662;2023-04-01T11:44:19;10.40;99.90
11894;DHT22;6006;49.696;8.662;2023-04-01T11:47:09;10.40;99.90
11894;DHT22;6006;49.696;8.662;2023-04-01T11:49:48;10.50;99.90
11894;DHT22;6006;49.696;8.662;2023-04-01T11:52:34;10.50;99.90
11894;DHT22;6006;49.696;8.662;2023-04-01T11:55:15;10.60;99.90
11894;DHT22;6006;49.696;8.662;2023-04-01T11:58:12;10.50;99.90
11894;DHT22;6006;49.696;8.662;2023-04-01T12:01:04;10.60;99.90
11894;DHT22;6006;49.696;8.662;2023-04-01T12:03:51;10.60;99.90
11894;DHT22;6006;49.696;8.662;2023-04-01T12:06:24;10.60;99.90
11894;DHT22;6006;49.696;8.662;2023-04-01T12:09:02;10.60;99.90
11894;DHT22;6006;49.696;8.662;2023-04-01T12:11:36;10.70;99.90
11894;DHT22;6006;49.696;8.662;2023-04-01T12:14:13;10.60;99.90
11894;DHT22;6006;49.696;8.662;2023-04-01T12:16:51;10.70;99.90
11894;DHT22;6006;49.696;8.662;2023-04-01T12:19:29;10.70;99.90
11894;DHT22;6006;49.696;8.662;2023-04-01T12:22:17;10.70;99.90
11894;DHT22;6006;49.696;8.662;2023-04-01T12:24:49;10.80;99.90
11894;DHT22;6006;49.696;8.662;2023-04-01T12:27:50;10.80;99.90
11894;DHT22;6006;49.696;8.662;2023-04-01T12:30:30;10.80;99.90
11894;DHT22;6006;49.696;8.662;2023-04-01T12:33:15;10.80;99.90
11894;DHT22;6006;49.696;8.662;2023-04-01T12:35:55;10.80;99.90
11894;DHT22;6006;49.696;8.662;2023-04-01T12:38:34;10.90;99.90
11894;DHT22;6006;49.696;8.662;2023-04-01T12:41:09;11.00;99.90
11894;DHT22;6006;49.696;8.662;2023-04-01T12:44:02;11.00;99.90
11894;DHT22;6006;49.696;8.662;2023-04-01T12:46:41;11.00;99.90
11894;DHT22;6006;49.696;8.662;2023-04-01T12:49:32;11.00;99.90
11894;DHT22;6006;49.696;8.662;2023-04-01T12:52:05;11.10;99.90
11894;DHT22;6006;49.696;8.662;2023-04-01T13:13:36;11.00;99.90
11894;DHT22;6006;49.696;8.662;2023-04-01T13:16:09;10.90;99.90
11894;DHT22;6006;49.696;8.662;2023-04-01T13:18:43;10.90;99.90
11894;DHT22;6006;49.696;8.662;2023-04-01T13:21:19;10.90;99.90
11894;DHT22;6006;49.696;8.662;2023-04-01T13:23:54;10.80;99.90
11894;DHT22;6006;49.696;8.662;2023-04-01T13:26:28;10.80;99.90
11894;DHT22;6006;49.696;8.662;2023-04-01T13:29:00;10.80;99.90
11894;DHT22;6006;49.696;8.662;2023-04-01T13:31:38;10.80;99.90
11894;DHT22;6006;49.696;8.662;2023-04-01T13:34:32;10.80;99.90
11894;DHT22;6006;49.696;8.662;2023-04-01T13:37:13;10.80;99.90
11894;DHT22;6006;49.696;8.662;2023-04-01T13:39:53;10.70;99.90
11894;DHT22;6006;49.696;8.662;2023-04-01T13:42:27;10.70;99.90
11894;DHT22;6006;49.696;8.662;2023-04-01T13:45:00;10.70;99.90
11894;DHT22;6006;49.696;8.662;2023-04-01T13:51:04;10.80;99.90
11894;DHT22;6006;49.696;8.662;2023-04-01T13:54:15;10.70;99.90
11894;DHT22;6006;49.696;8.662;2023-04-01T13:56:54;10.70;99.90
11894;DHT22;6006;49.696;8.662;2023-04-01T14:02:47;10.70;99.90
11894;DHT22;6006;49.696;8.662;2023-04-01T14:08:26;10.70;99.90
11894;DHT22;6006;49.696;8.662;2023-04-01T14:11:10;10.70;99.90
11894;DHT22;6006;49.696;8.662;2023-04-01T14:13:43;10.70;99.90
11894;DHT22;6006;49.696;8.662;2023-04-01T14:16:36;10.60;99.90
11894;DHT22;6006;49.696;8.662;2023-04-01T14:19:17;10.60;99.90
11894;DHT22;6006;49.696;8.662;2023-04-01T14:21:59;10.70;99.90
11894;DHT22;6006;49.696;8.662;2023-04-01T14:24:52;10.70;99.90
11894;DHT22;6006;49.696;8.662;2023-04-01T14:27:41;10.80;99.90
11894;DHT22;6006;49.696;8.662;2023-04-01T14:30:35;10.70;99.90
11894;DHT22;6006;49.696;8.662;2023-04-01T14:33:19;10.60;99.90
11894;DHT22;6006;49.696;8.662;2023-04-01T14:36:01;10.60;99.90
11894;DHT22;6006;49.696;8.662;2023-04-01T14:38:47;10.70;99.90
11894;DHT22;6006;49.696;8.662;2023-04-01T14:41:21;10.70;99.90
11894;DHT22;6006;49.696;8.662;2023-04-01T14:44:13;10.60;99.90
11894;DHT22;6006;49.696;8.662;2023-04-01T14:49:52;10.60;99.90
11894;DHT22;6006;49.696;8.662;2023-04-01T14:52:25;10.60;99.90
11894;DHT22;6006;49.696;8.662;2023-04-01T14:54:53;10.60;99.90
11894;DHT22;6006;49.696;8.662;2023-04-01T14:57:24;10.70;99.90
11894;DHT22;6006;49.696;8.662;2023-04-01T14:59:53;10.70;99.90
11894;DHT22;6006;49.696;8.662;2023-04-01T15:02:46;10.80;99.90
11894;DHT22;6006;49.696;8.662;2023-04-01T15:05:24;10.70;99.90
11894;DHT22;6006;49.696;8.662;2023-04-01T15:08:09;10.70;99.90
11894;DHT22;6006;49.696;8.662;2023-04-01T15:11:01;10.80;99.90
11894;DHT22;6006;49.696;8.662;2023-04-01T15:16:45;10.60;99.90
11894;DHT22;6006;49.696;8.662;2023-04-01T15:19:18;10.60;99.90
11894;DHT22;6006;49.696;8.662;2023-04-01T15:22:02;10.60;99.90
11894;DHT22;6006;49.696;8.662;2023-04-01T15:24:43;10.60;99.90
11894;DHT22;6006;49.696;8.662;2023-04-01T15:27:30;10.60;99.90
11894;DHT22;6006;49.696;8.662;2023-04-01T15:30:30;10.60;99.90
11894;DHT22;6006;49.696;8.662;2023-04-01T15:33:17;10.60;99.90
11894;DHT22;6006;49.696;8.662;2023-04-01T15:35:49;10.60;99.90
11894;DHT22;6006;49.696;8.662;2023-04-01T15:38:29;10.50;99.90
11894;DHT22;6006;49.696;8.662;2023-04-01T15:41:04;10.60;99.90
11894;DHT22;6006;49.696;8.662;2023-04-01T15:43:40;10.60;99.90
11894;DHT22;6006;49.696;8.662;2023-04-01T15:46:36;10.70;99.90
11894;DHT22;6006;49.696;8.662;2023-04-01T15:49:32;10.70;99.90
11894;DHT22;6006;49.696;8.662;2023-04-01T15:52:07;10.80;99.90
11894;DHT22;6006;49.696;8.662;2023-04-01T15:57:40;10.80;99.90
11894;DHT22;6006;49.696;8.662;2023-04-01T16:00:23;10.70;99.90
11894;DHT22;6006;49.696;8.662;2023-04-01T16:03:17;10.70;99.90
11894;DHT22;6006;49.696;8.662;2023-04-01T16:06:01;10.80;99.90
11894;DHT22;6006;49.696;8.662;2023-04-01T16:08:49;10.80;55.60
11894;DHT22;6006;49.696;8.662;2023-04-01T16:11:25;10.80;95.00
11894;DHT22;6006;49.696;8.662;2023-04-01T16:14:02;10.80;99.90
11894;DHT22;6006;49.696;8.662;2023-04-01T16:16:41;10.70;99.90
11894;DHT22;6006;49.696;8.662;2023-04-01T16:19:32;10.70;99.90
11894;DHT22;6006;49.696;8.662;2023-04-01T16:22:02;10.80;41.10
11894;DHT22;6006;49.696;8.662;2023-04-01T16:24:35;10.70;99.90
11894;DHT22;6006;49.696;8.662;2023-04-01T16:27:12;10.80;25.50
11894;DHT22;6006;49.696;8.662;2023-04-01T16:29:45;10.80;4.30
11894;DHT22;6006;49.696;8.662;2023-04-01T16:32:21;10.80;12.90
11894;DHT22;6006;49.696;8.662;2023-04-01T16:34:58;10.70;99.90
11894;DHT22;6006;49.696;8.662;2023-04-01T16:37:33;10.80;5.80
11894;DHT22;6006;49.696;8.662;2023-04-01T16:40:13;10.70;38.00
11894;DHT22;6006;49.696;8.662;2023-04-01T16:42:49;10.70;99.90
11894;DHT22;6006;49.696;8.662;2023-04-01T16:45:30;10.70;99.90
11894;DHT22;6006;49.696;8.662;2023-04-01T16:48:01;10.60;92.60
11894;DHT22;6006;49.696;8.662;2023-04-01T16:50:44;10.70;27.70
11894;DHT22;6006;49.696;8.662;2023-04-01T16:53:18;10.70;63.50
11894;DHT22;6006;49.696;8.662;2023-04-01T16:55:50;10.70;72.60
11894;DHT22;6006;49.696;8.662;2023-04-01T16:58:25;10.70;57.30
11894;DHT22;6006;49.696;8.662;2023-04-01T17:01:00;10.70;45.30
11894;DHT22;6006;49.696;8.662;2023-04-01T17:03:32;10.60;89.90
11894;DHT22;6006;49.696;8.662;2023-04-01T17:06:11;10.80;1.00
11894;DHT22;6006;49.696;8.662;2023-04-01T17:08:53;10.60;91.70
11894;DHT22;6006;49.696;8.662;2023-04-01T17:11:26;10.60;99.90
11894;DHT22;6006;49.696;8.662;2023-04-01T17:14:02;10.60;31.70
11894;DHT22;6006;49.696;8.662;2023-04-01T17:16:57;10.60;80.90
11894;DHT22;6006;49.696;8.662;2023-04-01T17:22:31;10.60;91.40
11894;DHT22;6006;49.696;8.662;2023-04-01T17:25:13;10.60;92.00
11894;DHT22;6006;49.696;8.662;2023-04-01T17:27:50;10.70;35.80
11894;DHT22;6006;49.696;8.662;2023-04-01T17:30:28;10.70;1.00
11894;DHT22;6006;49.696;8.662;2023-04-01T17:33:10;10.70;12.60
11894;DHT22;6006;49.696;8.662;2023-04-01T17:35:42;10.70;1.00
11894;DHT22;6006;49.696;8.662;2023-04-01T17:38:20;10.70;1.00
11894;DHT22;6006;49.696;8.662;2023-04-01T17:40:58;10.60;1.00
11894;DHT22;6006;49.696;8.662;2023-04-01T17:43:38;10.60;1.00
11894;DHT22;6006;49.696;8.662;2023-04-01T17:46:26;10.60;54.70
11894;DHT22;6006;49.696;8.662;2023-04-01T17:48:59;10.60;1.00
11894;DHT22;6006;49.696;8.662;2023-04-01T17:51:31;10.60;1.00
11894;DHT22;6006;49.696;8.662;2023-04-01T17:54:10;10.60;1.00
11894;DHT22;6006;49.696;8.662;2023-04-01T17:56:48;10.60;1.00
11894;DHT22;6006;49.696;8.662;2023-04-01T17:59:26;10.50;1.00
11894;DHT22;6006;49.696;8.662;2023-04-01T18:02:04;10.40;68.50
11894;DHT22;6006;49.696;8.662;2023-04-01T18:04:52;10.30;77.40
11894;DHT22;6006;49.696;8.662;2023-04-01T18:07:44;10.30;99.90
11894;DHT22;6006;49.696;8.662;2023-04-01T18:10:26;10.20;99.90
11894;DHT22;6006;49.696;8.662;2023-04-01T18:13:16;10.10;99.90
11894;DHT22;6006;49.696;8.662;2023-04-01T18:15:53;10.10;99.90
11894;DHT22;6006;49.696;8.662;2023-04-01T18:18:47;10.10;99.90
11894;DHT22;6006;49.696;8.662;2023-04-01T18:21:21;10.10;99.90
11894;DHT22;6006;49.696;8.662;2023-04-01T18:23:55;10.00;99.90
11894;DHT22;6006;49.696;8.662;2023-04-01T18:26:28;10.00;99.90
11894;DHT22;6006;49.696;8.662;2023-04-01T18:28:59;10.00;99.90